createdAt,value
2022-08-25T00:00:56.326Z,47.99121094
2022-08-25T00:02:05.050Z,47.4296875
2022-08-25T00:03:04.929Z,48.125
2022-08-25T00:04:00.609Z,48.50976563
2022-08-25T00:05:00.706Z,46.4140625
2022-08-25T00:07:00.677Z,47.4296875
2022-08-25T00:07:03.346Z,47.4296875
2022-08-25T00:07:56.475Z,47.71191406
2022-08-25T00:08:51.781Z,48.44921875
2022-08-25T00:09:52.411Z,47.57617188
2022-08-25T00:11:03.215Z,48.57617188
2022-08-25T00:11:03.502Z,48.57617188
2022-08-25T00:11:56.109Z,47.73828125
2022-08-25T00:12:56.096Z,47.58886719
2022-08-25T00:13:51.814Z,48.15820313
2022-08-25T00:14:55.389Z,47.80761719
2022-08-25T00:16:56.103Z,46.46777344
2022-08-25T00:17:50.899Z,46.42089844
2022-08-25T00:18:54.309Z,45.01269531
2022-08-25T00:19:47.324Z,45.60058594
2022-08-25T00:21:42.777Z,46.63085938
2022-08-25T00:22:50.557Z,46.71191406
2022-08-25T00:23:43.586Z,45.31542969
2022-08-25T00:24:45.189Z,44.86035156
2022-08-25T00:25:40.779Z,45.08105469
2022-08-25T00:26:42.948Z,45.53515625
2022-08-25T00:27:38.225Z,46.11816406
2022-08-25T00:28:40.805Z,46.60546875
2022-08-25T00:29:35.339Z,46.83984375
2022-08-25T00:30:40.637Z,46.90820313
2022-08-25T00:33:21.963Z,46.34472656
2022-08-25T00:34:08.975Z,46.76074219
2022-08-25T00:35:08.541Z,47.4609375
2022-08-25T00:36:07.801Z,45.57324219
2022-08-25T00:37:03.248Z,46.50488281
2022-08-25T00:38:06.103Z,46.40917969
2022-08-25T00:39:07.974Z,46.7578125
2022-08-25T00:40:08.234Z,45.82421875
2022-08-25T00:42:11.732Z,47.25292969
2022-08-25T00:42:15.759Z,47.25292969
2022-08-25T00:43:08.475Z,47.04492188
2022-08-25T00:44:08.620Z,46.50097656
2022-08-25T00:45:09.165Z,46.88671875
2022-08-25T00:47:08.680Z,46.67382813
2022-08-25T00:48:05.076Z,46.96289063
2022-08-25T00:49:22.462Z,46.69335938
2022-08-25T00:49:24.727Z,46.69335938
2022-08-25T00:50:08.148Z,46.96289063
2022-08-25T00:51:07.247Z,48.0859375
2022-08-25T00:52:06.682Z,48.18945313
2022-08-25T00:53:03.044Z,48.04785156
2022-08-25T00:54:06.304Z,46.90527344
2022-08-25T00:55:05.765Z,47.34472656
2022-08-25T00:55:07.670Z,47.34472656
2022-08-25T00:56:55.400Z,46.52929688
2022-08-25T00:57:59.188Z,46.890625
2022-08-25T00:58:55.412Z,47.109375
2022-08-25T00:59:54.411Z,47.40917969
2022-08-25T01:01:54.286Z,47.73046875
2022-08-25T01:02:53.509Z,47.70410156
2022-08-25T01:03:53.182Z,47.57324219
2022-08-25T01:04:49.517Z,47.37304688
2022-08-25T01:05:50.093Z,47.5
2022-08-25T01:06:44.406Z,47.62695313
2022-08-25T01:07:46.562Z,47.75097656
2022-08-25T01:08:41.060Z,47.79492188
2022-08-25T01:09:40.529Z,47.90917969
2022-08-25T01:10:41.087Z,48.05859375
2022-08-25T01:12:42.257Z,48.09179688
2022-08-25T01:13:37.218Z,48.13574219
2022-08-25T01:15:16.757Z,48.11816406
2022-08-25T01:17:12.047Z,47.8984375
2022-08-25T01:18:07.494Z,47.87207031
2022-08-25T01:19:10.205Z,47.94921875
2022-08-25T01:19:15.652Z,47.94921875
2022-08-25T01:21:52.134Z,48.44921875
2022-08-25T01:22:55.307Z,48.54394531
2022-08-25T01:23:48.623Z,48.41210938
2022-08-25T01:24:49.166Z,48.5859375
2022-08-25T01:26:44.967Z,48.30175781
2022-08-25T01:27:39.435Z,48.1796875
2022-08-25T01:28:38.004Z,48.27832031
2022-08-25T01:30:30.740Z,48.69726563
2022-08-25T01:32:02.340Z,48.38867188
2022-08-25T01:33:03.460Z,48.53710938
2022-08-25T01:33:57.793Z,48.59082031
2022-08-25T01:35:00.471Z,48.62988281
2022-08-25T01:36:58.107Z,48.93359375
2022-08-25T01:37:58.065Z,49.15917969
2022-08-25T01:38:58.270Z,49.18945313
2022-08-25T01:39:57.477Z,49.33691406
2022-08-25T01:41:54.683Z,49.32128906
2022-08-25T01:42:53.692Z,49.77050781
2022-08-25T01:43:51.888Z,49.52246094
2022-08-25T01:44:55.894Z,49.90429688
2022-08-25T01:46:53.580Z,49.84375
2022-08-25T01:47:49.115Z,49.63183594
2022-08-25T01:48:49.232Z,49.67578125
2022-08-25T01:49:46.203Z,50.21972656
2022-08-25T01:50:42.282Z,49.94042969
2022-08-25T01:51:41.741Z,50.01953125
2022-08-25T01:52:37.698Z,50.44726563
2022-08-25T01:53:37.758Z,50.01757813
2022-08-25T01:54:32.677Z,50.11230469
2022-08-25T01:55:33.968Z,50.09960938
2022-08-25T01:57:30.100Z,50.234375
2022-08-25T01:58:25.589Z,50.17285156
2022-08-25T01:59:29.058Z,50.12792969
2022-08-25T02:00:23.647Z,49.96484375
2022-08-25T02:02:21.653Z,50.20507813
2022-08-25T02:03:18.543Z,50.4453125
2022-08-25T02:04:17.419Z,50.35839844
2022-08-25T02:05:12.464Z,50.26269531
2022-08-25T02:06:08.782Z,50.55566406
2022-08-25T02:07:10.821Z,50.86328125
2022-08-25T02:08:06.551Z,50.75878906
2022-08-25T02:09:05.571Z,50.69335938
2022-08-25T02:10:02.238Z,50.47167969
2022-08-25T02:11:59.606Z,50.51660156
2022-08-25T02:12:56.335Z,50.375
2022-08-25T02:13:58.434Z,50.37011719
2022-08-25T02:15:48.313Z,50.27148438
2022-08-25T02:16:25.547Z,50.08007813
2022-08-25T02:17:24.734Z,49.90820313
2022-08-25T02:18:21.641Z,49.9765625
2022-08-25T02:19:22.468Z,49.94628906
2022-08-25T02:20:26.332Z,50.2421875
2022-08-25T02:22:32.852Z,50.50390625
2022-08-25T02:23:30.953Z,50.67480469
2022-08-25T02:24:38.897Z,50.79882813
2022-08-25T02:25:35.330Z,50.8984375
2022-08-25T02:27:35.040Z,50.99804688
2022-08-25T02:28:35.186Z,50.87792969
2022-08-25T02:29:36.107Z,51.29199219
2022-08-25T02:30:31.729Z,51.68457031
2022-08-25T02:32:26.137Z,51.19824219
2022-08-25T02:33:29.730Z,50.87109375
2022-08-25T02:34:23.923Z,51.04589844
2022-08-25T02:36:23.191Z,50.95410156
2022-08-25T02:38:22.526Z,51.33105469
2022-08-25T02:39:22.491Z,51.02832031
2022-08-25T02:40:19.327Z,51.29589844
2022-08-25T02:42:13.536Z,51.39746094
2022-08-25T02:43:11.190Z,51.24707031
2022-08-25T02:44:15.410Z,52.11425781
2022-08-25T02:45:20.568Z,51.671875
2022-08-25T02:48:57.711Z,51.56933594
2022-08-25T02:50:00.228Z,50.70117188
2022-08-25T02:51:59.843Z,51.06054688
2022-08-25T02:52:59.217Z,51.47460938
2022-08-25T02:53:57.082Z,51.02734375
2022-08-25T02:55:00.674Z,51.39550781
2022-08-25T02:55:55.408Z,51.32226563
2022-08-25T02:56:54.682Z,51.22558594
2022-08-25T02:57:49.094Z,51.23632813
2022-08-25T02:58:54.048Z,51.61328125
2022-08-25T02:59:50.832Z,51.390625
2022-08-25T03:00:50.404Z,51.55078125
2022-08-25T03:01:47.055Z,51.81445313
2022-08-25T03:02:46.771Z,51.79980469
2022-08-25T03:03:41.173Z,52.16992188
2022-08-25T03:04:40.968Z,52.15722656
2022-08-25T03:05:35.765Z,52.08886719
2022-08-25T03:07:35.632Z,52.02832031
2022-08-25T03:08:33.988Z,52.04980469
2022-08-25T03:09:36.617Z,52.22070313
2022-08-25T03:10:31.358Z,52.0703125
2022-08-25T03:12:24.188Z,52.25585938
2022-08-25T03:13:24.074Z,52.171875
2022-08-25T03:14:19.494Z,52.35449219
2022-08-25T03:15:23.485Z,52.56152344
2022-08-25T03:16:20.341Z,52.63183594
2022-08-25T03:17:24.432Z,52.59375
2022-08-25T03:18:23.554Z,52.51074219
2022-08-25T03:19:19.946Z,52.72753906
2022-08-25T03:20:21.419Z,52.60839844
2022-08-25T03:22:15.601Z,52.48242188
2022-08-25T03:24:02.991Z,52.62792969
2022-08-25T03:24:48.828Z,52.26367188
2022-08-25T03:25:52.051Z,52.31445313
2022-08-25T03:27:51.732Z,52.23925781
2022-08-25T03:28:50.785Z,52.58105469
2022-08-25T03:29:48.888Z,52.25488281
2022-08-25T03:30:48.175Z,52.54003906
2022-08-25T03:30:55.755Z,52.54003906
2022-08-25T03:31:50.299Z,52.92480469
2022-08-25T03:32:47.680Z,52.76269531
2022-08-25T03:33:47.083Z,52.72558594
2022-08-25T03:34:42.633Z,52.88476563
2022-08-25T03:35:53.404Z,53.05273438
2022-08-25T03:37:56.289Z,53.28710938
2022-08-25T03:38:52.868Z,53.13476563
2022-08-25T03:39:51.509Z,53.34082031
2022-08-25T03:40:52.076Z,53.45410156
2022-08-25T03:42:58.401Z,53.80664063
2022-08-25T03:43:57.583Z,53.6328125
2022-08-25T03:45:01.511Z,54.26660156
2022-08-25T03:45:54.144Z,53.65332031
2022-08-25T03:47:47.212Z,53.76660156
2022-08-25T03:48:51.130Z,54.08984375
2022-08-25T03:49:45.628Z,53.83203125
2022-08-25T03:50:50.506Z,53.78417969
2022-08-25T03:52:42.817Z,53.91308594
2022-08-25T03:53:37.556Z,53.92480469
2022-08-25T03:54:43.309Z,53.90917969
2022-08-25T03:55:38.142Z,53.59765625
2022-08-25T03:56:39.936Z,53.65625
2022-08-25T03:57:34.543Z,53.94238281
2022-08-25T03:58:33.067Z,53.85839844
2022-08-25T03:59:27.828Z,53.7421875
2022-08-25T04:00:32.604Z,53.9921875
2022-08-25T04:02:30.813Z,54.18945313
2022-08-25T04:04:17.335Z,54.06640625
2022-08-25T04:04:58.785Z,54.26660156
2022-08-25T04:05:58.623Z,53.96972656
2022-08-25T04:08:00.626Z,53.82714844
2022-08-25T04:09:01.248Z,54.20703125
2022-08-25T04:10:03.429Z,54.01074219
2022-08-25T04:11:13.370Z,54.16992188
2022-08-25T04:12:09.790Z,54.16894531
2022-08-25T04:13:16.172Z,54.36035156
2022-08-25T04:14:15.916Z,54.34570313
2022-08-25T04:15:15.138Z,54.54003906
2022-08-25T04:17:13.266Z,54.64160156
2022-08-25T04:18:09.847Z,54.41992188
2022-08-25T04:19:13.798Z,54.62402344
2022-08-25T04:20:14.136Z,54.86523438
2022-08-25T04:22:14.213Z,54.97753906
2022-08-25T04:23:11.245Z,54.88378906
2022-08-25T04:24:13.228Z,54.97460938
2022-08-25T04:25:15.486Z,55.00585938
2022-08-25T04:26:14.940Z,55.13476563
2022-08-25T04:27:15.144Z,55.12109375
2022-08-25T04:28:17.068Z,55.08398438
2022-08-25T04:29:14.489Z,55.50976563
2022-08-25T04:30:18.806Z,55.3828125
2022-08-25T04:32:16.247Z,55.484375
2022-08-25T04:33:17.182Z,55.51757813
2022-08-25T04:34:29.503Z,55.38964844
2022-08-25T04:34:30.381Z,55.38964844
2022-08-25T04:34:30.567Z,55.38964844
2022-08-25T04:36:33.100Z,55.08203125
2022-08-25T04:37:03.218Z,54.8046875
2022-08-25T04:38:06.110Z,54.68554688
2022-08-25T04:39:08.674Z,54.76757813
2022-08-25T04:40:07.645Z,54.71679688
2022-08-25T04:41:09.719Z,54.921875
2022-08-25T04:42:11.807Z,55.13574219
2022-08-25T04:43:09.468Z,54.92285156
2022-08-25T04:44:13.026Z,55.09082031
2022-08-25T04:45:16.069Z,55.59472656
2022-08-25T04:46:20.473Z,55.46484375
2022-08-25T04:47:23.700Z,55.49609375
2022-08-25T04:48:20.195Z,55.390625
2022-08-25T04:49:20.585Z,55.74707031
2022-08-25T04:50:27.565Z,55.94042969
2022-08-25T04:51:21.092Z,55.80371094
2022-08-25T04:52:22.518Z,55.62890625
2022-08-25T04:53:20.604Z,55.69628906
2022-08-25T04:54:24.246Z,56.04003906
2022-08-25T04:55:20.044Z,55.95800781
2022-08-25T04:57:27.927Z,56.23339844
2022-08-25T04:58:26.808Z,56.234375
2022-08-25T04:59:30.710Z,56.20898438
2022-08-25T05:00:26.854Z,56.32324219
2022-08-25T05:01:30.934Z,56.61523438
2022-08-25T05:02:25.566Z,56.33691406
2022-08-25T05:03:26.558Z,56.60253906
2022-08-25T05:04:28.262Z,56.61328125
2022-08-25T05:05:32.087Z,56.80859375
2022-08-25T05:07:32.060Z,56.61914063
2022-08-25T05:08:28.483Z,56.73535156
2022-08-25T05:09:28.863Z,56.86132813
2022-08-25T05:10:30.554Z,56.81445313
2022-08-25T05:11:27.166Z,56.87402344
2022-08-25T05:12:30.723Z,57.0234375
2022-08-25T05:13:36.554Z,56.8359375
2022-08-25T05:14:42.929Z,57.02246094
2022-08-25T05:15:43.115Z,56.75683594
2022-08-25T05:17:05.685Z,57.24414063
2022-08-25T05:17:50.677Z,57.48535156
2022-08-25T05:17:55.991Z,57.48535156
2022-08-25T05:18:50.187Z,57.375
2022-08-25T05:19:46.132Z,57.54199219
2022-08-25T05:20:47.946Z,57.40332031
2022-08-25T05:21:43.254Z,57.3125
2022-08-25T05:22:43.922Z,57.37890625
2022-08-25T05:23:39.167Z,57.52636719
2022-08-25T05:24:43.386Z,57.91894531
2022-08-25T05:25:41.574Z,57.74414063
2022-08-25T05:27:39.260Z,58.09082031
2022-08-25T05:28:42.950Z,57.9765625
2022-08-25T05:29:38.618Z,58.3359375
2022-08-25T05:30:41.977Z,58.20800781
2022-08-25T05:31:45.932Z,58.22265625
2022-08-25T05:31:50.364Z,58.22265625
2022-08-25T05:32:42.725Z,58.16503906
2022-08-25T05:33:40.771Z,58.29785156
2022-08-25T05:34:38.709Z,58.47167969
2022-08-25T05:35:39.913Z,59.02539063
2022-08-25T05:36:41.273Z,59.15332031
2022-08-25T05:37:42.495Z,58.69042969
2022-08-25T05:38:40.857Z,58.56347656
2022-08-25T05:39:38.949Z,59.10644531
2022-08-25T05:40:40.455Z,59.23339844
2022-08-25T05:42:39.071Z,58.99511719
2022-08-25T05:43:33.490Z,58.96289063
2022-08-25T05:44:36.464Z,58.56152344
2022-08-25T05:45:30.853Z,58.5625
2022-08-25T05:47:26.881Z,58.35742188
2022-08-25T05:48:31.052Z,58.34765625
2022-08-25T05:49:24.883Z,58.78808594
2022-08-25T05:50:27.762Z,58.765625
2022-08-25T05:51:21.301Z,58.515625
2022-08-25T05:53:05.852Z,58.67480469
2022-08-25T05:53:46.435Z,58.62792969
2022-08-25T05:54:45.860Z,58.74902344
2022-08-25T05:55:43.152Z,58.45898438
2022-08-25T05:56:45.366Z,57.84667969
2022-08-25T05:57:39.883Z,57.85644531
2022-08-25T05:58:36.928Z,57.44921875
2022-08-25T05:59:38.880Z,57.1796875
2022-08-25T06:00:35.200Z,57.02929688
2022-08-25T06:02:29.901Z,56.8359375
2022-08-25T06:03:33.396Z,56.76855469
2022-08-25T06:04:28.065Z,56.81445313
2022-08-25T06:05:30.210Z,56.95410156
2022-08-25T06:07:25.040Z,57.40722656
2022-08-25T06:08:29.537Z,57.58007813
2022-08-25T06:09:24.823Z,57.71972656
2022-08-25T06:10:29.967Z,57.13378906
2022-08-25T06:11:26.261Z,57.58691406
2022-08-25T06:12:29.529Z,57.27539063
2022-08-25T06:13:28.892Z,57.20800781
2022-08-25T06:13:29.136Z,57.20800781
2022-08-25T06:14:30.339Z,56.71582031
2022-08-25T06:15:22.809Z,56.23046875
2022-08-25T06:17:21.662Z,55.97558594
2022-08-25T06:18:22.269Z,56.33789063
2022-08-25T06:19:16.835Z,56.24511719
2022-08-25T06:20:16.096Z,56.30371094
2022-08-25T06:21:18.964Z,56.39550781
2022-08-25T06:22:14.797Z,56.640625
2022-08-25T06:23:18.733Z,56.37597656
2022-08-25T06:23:44.785Z,56.421875
2022-08-25T06:24:45.389Z,56.390625
2022-08-25T06:25:40.138Z,56.4140625
2022-08-25T06:26:39.673Z,56.12792969
2022-08-25T06:27:34.346Z,56.20117188
2022-08-25T06:28:36.291Z,56.39746094
2022-08-25T06:29:32.743Z,56.63183594
2022-08-25T06:30:36.646Z,56.64648438
2022-08-25T06:32:34.286Z,56.62988281
2022-08-25T06:34:13.529Z,56.53417969
2022-08-25T06:36:45.530Z,54.69335938
2022-08-25T06:37:11.909Z,54.74414063
2022-08-25T06:38:09.920Z,54.52246094
2022-08-25T06:39:10.597Z,54.82421875
2022-08-25T06:40:04.265Z,54.38964844
2022-08-25T06:41:10.826Z,54.47265625
2022-08-25T06:43:06.080Z,55.07226563
2022-08-25T06:44:06.184Z,55.48339844
2022-08-25T06:45:08.137Z,55.25
2022-08-25T06:45:59.041Z,55.87109375
2022-08-25T06:47:54.932Z,55.23339844
2022-08-25T06:48:52.843Z,55.34960938
2022-08-25T06:49:46.868Z,55.67480469
2022-08-25T06:50:50.533Z,55.84765625
2022-08-25T06:51:48.341Z,56.00976563
2022-08-25T06:52:42.697Z,55.88378906
2022-08-25T06:53:41.022Z,56.40625
2022-08-25T06:54:39.184Z,56.40039063
2022-08-25T06:55:39.334Z,56.06347656
2022-08-25T06:57:33.255Z,56.00976563
2022-08-25T06:58:33.430Z,56.40820313
2022-08-25T06:59:25.133Z,55.33007813
2022-08-25T06:59:32.470Z,55.33007813
2022-08-25T07:00:30.297Z,55.70996094
2022-08-25T07:00:31.631Z,55.70996094
2022-08-25T07:01:25.991Z,56.07617188
2022-08-25T07:02:21.893Z,56.01464844
2022-08-25T07:03:19.506Z,56.17285156
2022-08-25T07:04:12.787Z,55.63183594
2022-08-25T07:05:13.215Z,55.58984375
2022-08-25T07:06:06.252Z,55.4296875
2022-08-25T07:07:59.267Z,55.61035156
2022-08-25T07:08:55.666Z,55.24023438
2022-08-25T07:09:56.268Z,55.14941406
2022-08-25T07:10:51.760Z,55.09082031
2022-08-25T07:12:44.576Z,54.97949219
2022-08-25T07:13:43.926Z,54.53125
2022-08-25T07:14:38.306Z,54.58105469
2022-08-25T07:15:34.180Z,55.18945313
2022-08-25T07:17:20.421Z,53.80761719
2022-08-25T07:18:01.096Z,54.10839844
2022-08-25T07:19:01.598Z,53.96679688
2022-08-25T07:19:58.931Z,54.2265625
2022-08-25T07:21:02.610Z,54.44824219
2022-08-25T07:21:59.076Z,54.26464844
2022-08-25T07:22:55.673Z,54.45019531
2022-08-25T07:23:55.188Z,54.34765625
2022-08-25T07:24:51.762Z,54.66503906
2022-08-25T07:25:51.236Z,54.11914063
2022-08-25T07:27:48.913Z,54.29882813
2022-08-25T07:28:47.208Z,54.32617188
2022-08-25T07:28:47.454Z,54.32617188
2022-08-25T07:29:42.269Z,53.99609375
2022-08-25T07:30:37.079Z,54.29296875
2022-08-25T07:32:31.565Z,53.87011719
2022-08-25T07:33:28.632Z,54.02539063
2022-08-25T07:34:28.366Z,54.36523438
2022-08-25T07:35:23.990Z,54.79882813
2022-08-25T07:36:22.695Z,54.16113281
2022-08-25T07:37:32.245Z,54.22167969
2022-08-25T07:37:47.608Z,54.22167969
2022-08-25T07:37:48.145Z,54.22167969
2022-08-25T07:38:20.771Z,53.99511719
2022-08-25T07:39:15.141Z,53.72460938
2022-08-25T07:40:14.336Z,53.70898438
2022-08-25T07:41:09.673Z,53.54882813
2022-08-25T07:43:07.976Z,53.42871094
2022-08-25T07:44:03.572Z,53.78125
2022-08-25T07:45:02.528Z,52.78320313
2022-08-25T07:46:04.884Z,53.01953125
2022-08-25T07:46:57.851Z,53.53320313
2022-08-25T07:47:59.265Z,53.03613281
2022-08-25T07:48:54.825Z,53.00683594
2022-08-25T07:49:55.301Z,52.88378906
2022-08-25T07:52:32.564Z,51.91796875
2022-08-25T07:53:32.450Z,51.4375
2022-08-25T07:54:33.732Z,51.56933594
2022-08-25T07:54:34.315Z,51.56933594
2022-08-25T07:56:10.750Z,51.76953125
2022-08-25T07:57:11.104Z,51.84863281
2022-08-25T07:58:50.020Z,51.29101563
2022-08-25T07:59:50.170Z,51.546875
2022-08-25T08:03:10.019Z,49.88769531
2022-08-25T08:03:19.816Z,49.88769531
2022-08-25T08:04:52.472Z,48.68554688
2022-08-25T08:08:09.171Z,48.54394531
2022-08-25T08:09:46.373Z,48.4296875
2022-08-25T08:11:21.869Z,48.80566406
2022-08-25T08:13:07.227Z,47.95410156
2022-08-25T08:14:02.198Z,48.08496094
2022-08-25T08:16:40.759Z,48.17578125
2022-08-25T08:17:39.449Z,48.29003906
2022-08-25T08:18:40.623Z,48.93945313
2022-08-25T08:19:36.362Z,48.25878906
2022-08-25T08:20:42.628Z,47.70117188
2022-08-25T08:20:43.375Z,47.70117188
2022-08-25T08:21:36.309Z,47.9296875
2022-08-25T08:22:31.902Z,47.8828125
2022-08-25T08:23:34.946Z,48.24414063
2022-08-25T08:24:44.245Z,48.64160156
2022-08-25T08:24:44.563Z,48.64160156
2022-08-25T08:24:54.952Z,48.64160156
2022-08-25T08:25:27.708Z,49.02929688
2022-08-25T08:26:41.896Z,49.58105469
2022-08-25T08:26:55.339Z,49.58105469
2022-08-25T08:26:57.385Z,49.58105469
2022-08-25T08:28:26.465Z,48.09179688
2022-08-25T08:29:22.750Z,48.39941406
2022-08-25T08:30:23.714Z,48.37597656
2022-08-25T08:31:26.545Z,47.99804688
2022-08-25T08:32:19.865Z,48.515625
2022-08-25T08:33:21.148Z,48.61035156
2022-08-25T08:34:17.354Z,48.64941406
2022-08-25T08:35:16.905Z,48.7578125
2022-08-25T08:36:19.360Z,48.05371094
2022-08-25T08:37:13.698Z,48.30371094
2022-08-25T08:38:18.440Z,47.79003906
2022-08-25T08:38:22.222Z,47.79003906
2022-08-25T08:38:27.064Z,47.79003906
2022-08-25T08:39:13.849Z,47.87695313
2022-08-25T08:40:10.256Z,47.34277344
2022-08-25T08:41:14.019Z,47.94335938
2022-08-25T08:43:13.339Z,48.06640625
2022-08-25T08:43:18.305Z,48.06640625
2022-08-25T08:44:08.712Z,48.59960938
2022-08-25T08:45:04.966Z,47.92480469
2022-08-25T08:46:06.351Z,48.41015625
2022-08-25T08:48:03.221Z,47.89257813
2022-08-25T08:48:59.967Z,48.05859375
2022-08-25T08:50:01.938Z,48.12011719
2022-08-25T08:50:59.280Z,47.68554688
2022-08-25T08:52:57.309Z,47.3671875
2022-08-25T08:53:55.110Z,47.57714844
2022-08-25T08:54:53.836Z,47.55371094
2022-08-25T08:55:54.634Z,46.89355469
2022-08-25T08:56:52.843Z,47.22070313
2022-08-25T08:57:55.496Z,47.48144531
2022-08-25T08:58:49.876Z,47.42285156
2022-08-25T08:59:50.456Z,47.93945313
2022-08-25T09:00:46.772Z,47.77441406
2022-08-25T09:00:52.155Z,47.77441406
2022-08-25T09:02:51.498Z,47.54199219
2022-08-25T09:02:51.983Z,47.54199219
2022-08-25T09:04:30.760Z,48.33691406
2022-08-25T09:05:11.787Z,47.16894531
2022-08-25T09:06:09.656Z,47.23144531
2022-08-25T09:07:09.991Z,47.5625
2022-08-25T09:08:06.073Z,47.64257813
2022-08-25T09:09:06.810Z,48.04199219
2022-08-25T09:10:02.278Z,47.58398438
2022-08-25T09:11:01.826Z,47.40722656
2022-08-25T09:11:57.429Z,47.60742188
2022-08-25T09:12:57.219Z,46.703125
2022-08-25T09:13:53.725Z,46.83105469
2022-08-25T09:14:56.448Z,47.00683594
2022-08-25T09:15:49.230Z,47.34960938
2022-08-25T09:17:45.458Z,47.43359375
2022-08-25T09:17:54.492Z,47.43359375
2022-08-25T09:18:51.247Z,46.6875
2022-08-25T09:18:52.649Z,46.6875
2022-08-25T09:19:45.582Z,46.95214844
2022-08-25T09:20:41.771Z,47.00488281
2022-08-25T09:22:36.897Z,47.2421875
2022-08-25T09:23:37.307Z,47.43066406
2022-08-25T09:24:34.161Z,46.78417969
2022-08-25T09:25:52.317Z,46.87792969
2022-08-25T09:25:53.124Z,46.87792969
2022-08-25T09:25:53.207Z,46.87792969
2022-08-25T09:26:33.285Z,47.328125
2022-08-25T09:28:32.348Z,46.53710938
2022-08-25T09:29:25.356Z,46.44824219
2022-08-25T09:30:25.634Z,46.28125
2022-08-25T09:31:21.114Z,46.72851563
2022-08-25T09:32:24.061Z,46.47070313
2022-08-25T09:33:20.876Z,45.91601563
2022-08-25T09:34:17.281Z,46.45996094
2022-08-25T09:35:13.467Z,46.25
2022-08-25T09:36:11.150Z,46.70898438
2022-08-25T09:37:11.292Z,46.19238281
2022-08-25T09:38:07.121Z,45.8515625
2022-08-25T09:39:06.616Z,46.65039063
2022-08-25T09:40:06.898Z,46.67382813
2022-08-25T09:41:02.781Z,46.53125
2022-08-25T09:43:03.424Z,46.69726563
2022-08-25T09:44:03.925Z,46.47558594
2022-08-25T09:45:02.862Z,46.546875
2022-08-25T09:46:39.689Z,46.84570313
2022-08-25T09:46:44.925Z,46.84570313
2022-08-25T09:47:19.786Z,46.6875
2022-08-25T09:48:18.871Z,46.35351563
2022-08-25T09:49:18.655Z,46.38964844
2022-08-25T09:50:18.452Z,46.29589844
2022-08-25T09:51:17.328Z,46
2022-08-25T09:52:12.921Z,45.68066406
2022-08-25T09:53:13.751Z,46.01074219
2022-08-25T09:54:10.944Z,46.48144531
2022-08-25T09:55:09.551Z,45.96484375
2022-08-25T09:56:06.206Z,45.76660156
2022-08-25T09:57:08.789Z,45.95507813
2022-08-25T09:58:01.964Z,46.29589844
2022-08-25T09:58:09.656Z,46.29589844
2022-08-25T09:59:03.214Z,45.54394531
2022-08-25T09:59:57.820Z,45.61621094
2022-08-25T10:00:57.752Z,46.19433594
2022-08-25T10:01:56.936Z,45.8984375
2022-08-25T10:02:56.879Z,45.72167969
2022-08-25T10:03:52.371Z,46.47167969
2022-08-25T10:04:50.623Z,46.73046875
2022-08-25T10:05:49.686Z,46.83300781
2022-08-25T10:05:56.265Z,46.83300781
2022-08-25T10:07:42.429Z,46.3828125
2022-08-25T10:08:44.502Z,46.37207031
2022-08-25T10:09:37.579Z,46.49023438
2022-08-25T10:10:37.303Z,45.9375
2022-08-25T10:11:35.100Z,46.24121094
2022-08-25T10:12:37.283Z,45.86816406
2022-08-25T10:12:43.126Z,45.86816406
2022-08-25T10:13:35.487Z,46.18847656
2022-08-25T10:14:30.796Z,46.68359375
2022-08-25T10:15:33.205Z,45.49609375
2022-08-25T10:16:29.630Z,45.73242188
2022-08-25T10:16:34.499Z,45.73242188
2022-08-25T10:18:25.975Z,44.73632813
2022-08-25T10:19:20.609Z,45.44433594
2022-08-25T10:20:23.530Z,45.33886719
2022-08-25T10:21:18.369Z,45.78515625
2022-08-25T10:23:12.756Z,44.23242188
2022-08-25T10:24:11.331Z,45.56152344
2022-08-25T10:25:13.353Z,45.17285156
2022-08-25T10:26:08.370Z,45.8671875
2022-08-25T10:28:09.286Z,45.65332031
2022-08-25T10:29:03.685Z,45.18261719
2022-08-25T10:30:02.866Z,44.71289063
2022-08-25T10:30:58.088Z,44.86621094
2022-08-25T10:31:54.832Z,45.06738281
2022-08-25T10:33:33.335Z,44.57519531
2022-08-25T10:34:15.158Z,44.29785156
2022-08-25T10:35:14.385Z,44.27734375
2022-08-25T10:36:14.985Z,44.52441406
2022-08-25T10:36:20.381Z,44.52441406
2022-08-25T10:38:13.129Z,45.03222656
2022-08-25T10:38:21.629Z,45.03222656
2022-08-25T10:39:33.848Z,45.50292969
2022-08-25T10:39:33.869Z,45.50292969
2022-08-25T10:39:34.293Z,45.50292969
2022-08-25T10:40:16.724Z,44.86035156
2022-08-25T10:41:11.242Z,44.73535156
2022-08-25T10:43:08.145Z,44.87597656
2022-08-25T10:44:08.080Z,44.70898438
2022-08-25T10:45:04.711Z,45.15332031
2022-08-25T10:46:07.345Z,45.0703125
2022-08-25T10:47:03.529Z,45.11523438
2022-08-25T10:48:05.833Z,45.1015625
2022-08-25T10:49:01.198Z,45.13574219
2022-08-25T10:50:01.634Z,45.43945313
2022-08-25T10:50:56.984Z,44.62695313
2022-08-25T10:51:57.262Z,44.56835938
2022-08-25T10:52:55.074Z,44.8046875
2022-08-25T10:53:54.242Z,44.71191406
2022-08-25T10:54:54.823Z,44.54785156
2022-08-25T10:55:51.183Z,45.43066406
2022-08-25T10:58:00.991Z,44.06640625
2022-08-25T10:58:54.064Z,44.67089844
2022-08-25T10:59:50.497Z,44.54296875
2022-08-25T11:00:53.273Z,44.33300781
2022-08-25T11:01:48.591Z,44.578125
2022-08-25T11:01:53.986Z,44.578125
2022-08-25T11:02:48.926Z,44.35546875
2022-08-25T11:03:48.897Z,44.09570313
2022-08-25T11:04:48.084Z,43.97753906
2022-08-25T11:05:44.612Z,44.09472656
2022-08-25T11:06:44.778Z,44.2578125
2022-08-25T11:07:40.319Z,44.32617188
2022-08-25T11:08:44.129Z,44.64355469
2022-08-25T11:09:36.887Z,45.15917969
2022-08-25T11:10:38.255Z,44.74804688
2022-08-25T11:11:35.068Z,44.75976563
2022-08-25T11:12:33.086Z,44.32421875
2022-08-25T11:13:37.316Z,44.38183594
2022-08-25T11:14:34.649Z,44.04101563
2022-08-25T11:15:34.536Z,44.26464844
2022-08-25T11:16:31.010Z,44.4765625
2022-08-25T11:17:34.550Z,44.32421875
2022-08-25T11:18:27.544Z,45.27734375
2022-08-25T11:19:30.467Z,44.2890625
2022-08-25T11:20:27.471Z,44.90039063
2022-08-25T11:21:23.834Z,44.59765625
2022-08-25T11:23:21.512Z,43.8203125
2022-08-25T11:24:28.827Z,44.52636719
2022-08-25T11:25:27.663Z,44.59765625
2022-08-25T11:27:05.775Z,44.57519531
2022-08-25T11:27:45.749Z,44.35644531
2022-08-25T11:28:45.880Z,44.27539063
2022-08-25T11:29:44.221Z,43.6875
2022-08-25T11:30:44.931Z,43.50878906
2022-08-25T11:31:39.961Z,43.57714844
2022-08-25T11:33:36.236Z,43.56445313
2022-08-25T11:34:31.479Z,43.87890625
2022-08-25T11:35:34.641Z,43.47949219